Terminal Aerodrome Forecast
Issued by NWS Binghamton, NY

Home | Current Version | Previous Version | Text Only | Print | Product List | Glossary On
Versions: 1 2 3 4 5 6 7 8 9 10 11 12 13 14 15 16 17 18 19 20
000
FTUS41 KBGM 051122
TAFBGM
TAF
KBGM 051122Z 0512/0612 27005KT 3SM BR SCT003 BKN012
      TEMPO 0512/0514 1/4SM FG OVC002
     FM051500 30010KT P6SM FEW035 BKN250
     FM060000 15005KT P6SM SCT100 BKN250=

USA.gov is the U.S. government's official web portal to all federal, state and local government web resources and services.